Time;durP1;ratioP1;P1;durP2;ratioP2;P2;SDS_P1;SDS_P2;PMS_P1;PMS_P2;Temp;Humidity;BMP_temperature;BMP_pressure;BME280_temperature;BME280_humidity;BME280_pressure;Samples;Min_cycle;Max_cycle;Signal;HPM_P1;HPM_P2
2021/08/05 00:00:10;;;;;;;11.25;3.45;;;25.20;57.00;;;;;;4344468;32;20510;-38
2021/08/05 00:02:37;;;;;;;7.75;2.37;;;25.20;56.90;;;;;;4343931;32;20500;-36
2021/08/05 00:05:03;;;;;;;21.08;6.60;;;25.20;56.80;;;;;;4357446;32;20565;-37
2021/08/05 00:07:29;;;;;;;16.65;6.57;;;25.30;56.70;;;;;;4357757;32;20107;-38
2021/08/05 00:09:56;;;;;;;11.02;3.17;;;25.30;56.50;;;;;;4343993;32;20073;-37
2021/08/05 00:12:22;;;;;;;25.45;9.23;;;25.30;56.50;;;;;;4357710;32;20244;-37
2021/08/05 00:14:49;;;;;;;16.60;6.22;;;25.30;56.50;;;;;;4357723;32;20570;-36
2021/08/05 00:17:15;;;;;;;25.08;7.25;;;25.30;56.50;;;;;;4358388;32;20059;-37
2021/08/05 00:19:41;;;;;;;2.42;1.55;;;25.30;56.50;;;;;;4360410;32;20085;-37
2021/08/05 00:22:08;;;;;;;19.83;6.70;;;25.30;56.30;;;;;;4359804;32;20092;-37
2021/08/05 00:24:34;;;;;;;19.23;6.57;;;25.30;56.40;;;;;;4346350;32;20102;-36
2021/08/05 00:27:01;;;;;;;11.50;3.25;;;25.30;56.50;;;;;;4359906;32;20075;-37
2021/08/05 00:29:27;;;;;;;3.80;1.50;;;25.30;56.50;;;;;;4360008;32;20163;-37
2021/08/05 00:31:53;;;;;;;11.52;3.65;;;25.30;56.40;;;;;;4359667;32;20078;-38
2021/08/05 00:34:20;;;;;;;6.70;3.00;;;25.30;56.30;;;;;;4359638;32;20074;-37
2021/08/05 00:36:46;;;;;;;9.25;3.12;;;25.30;56.30;;;;;;4360249;32;20082;-37
2021/08/05 00:39:13;;;;;;;11.35;3.30;;;25.30;56.30;;;;;;4360397;32;20074;-37
2021/08/05 00:41:39;;;;;;;9.35;2.28;;;25.30;56.30;;;;;;4354218;32;20063;-37
2021/08/05 00:44:05;;;;;;;7.87;3.05;;;25.30;56.10;;;;;;4345011;32;20592;-37
2021/08/05 00:46:32;;;;;;;7.90;3.10;;;25.30;56.00;;;;;;4345299;32;20157;-36
2021/08/05 00:48:58;;;;;;;11.00;3.35;;;25.30;55.90;;;;;;4344916;33;20054;-37
2021/08/05 00:51:24;;;;;;;10.20;3.62;;;25.40;55.90;;;;;;4345095;32;20147;-37
2021/08/05 00:53:51;;;;;;;5.72;2.42;;;25.40;55.70;;;;;;4345095;32;20530;-37
2021/08/05 00:56:17;;;;;;;4.37;1.23;;;25.40;55.60;;;;;;4344785;32;20146;-37
2021/08/05 00:58:43;;;;;;;0.75;0.60;;;25.40;55.30;;;;;;4345393;32;20133;-37
2021/08/05 01:01:15;;;;;;;1.20;1.08;;;25.50;55.20;;;;;;4359884;32;20156;-37
2021/08/05 01:03:43;;;;;;;1.62;1.10;;;25.40;55.20;;;;;;4345910;32;20490;-37
2021/08/05 01:06:18;;;;;;;1.52;0.82;;;25.30;55.30;;;;;;4346091;32;20067;-37
2021/08/05 01:09:05;;;;;;;3.37;1.00;;;25.30;55.60;;;;;;4359826;32;20074;-38
2021/08/05 01:12:07;;;;;;;1.27;0.70;;;25.30;55.60;;;;;;4347726;32;20118;-38
2021/08/05 01:14:38;;;;;;;1.52;1.15;;;25.30;55.60;;;;;;4347482;32;20525;-37
2021/08/05 01:17:05;;;;;;;0.82;0.68;;;25.30;55.60;;;;;;4333758;32;20071;-37
2021/08/05 01:19:47;;;;;;;0.80;0.60;;;25.30;55.80;;;;;;4359490;32;20085;-37
2021/08/05 01:22:25;;;;;;;2.97;0.93;;;25.30;55.90;;;;;;4346620;32;20090;-38
2021/08/05 01:25:18;;;;;;;4.65;0.80;;;25.30;55.90;;;;;;4359363;32;20082;-37
2021/08/05 01:27:44;;;;;;;1.60;0.85;;;25.40;56.00;;;;;;4359652;32;20087;-38
2021/08/05 01:30:11;;;;;;;2.10;0.98;;;25.40;55.80;;;;;;4320325;32;20156;-38
2021/08/05 01:32:37;;;;;;;2.55;1.42;;;25.40;55.70;;;;;;4345156;32;20510;-38
2021/08/05 01:35:09;;;;;;;5.80;1.40;;;25.50;55.80;;;;;;4333445;32;20077;-37
2021/08/05 01:37:35;;;;;;;0.90;0.60;;;25.50;55.60;;;;;;4333664;32;20062;-37
2021/08/05 01:40:01;;;;;;;0.98;0.62;;;25.50;55.60;;;;;;4359034;32;20074;-37
2021/08/05 01:42:28;;;;;;;1.50;0.98;;;25.50;55.60;;;;;;4322599;33;20139;-37
2021/08/05 01:44:54;;;;;;;1.70;0.90;;;25.50;55.60;;;;;;4318302;33;20075;-37
2021/08/05 01:47:21;;;;;;;2.08;1.23;;;25.60;55.60;;;;;;4330450;33;20071;-38
2021/08/05 01:49:47;;;;;;;1.77;0.90;;;25.60;55.50;;;;;;4318387;33;20090;-38
2021/08/05 01:52:14;;;;;;;1.98;1.02;;;25.70;55.30;;;;;;4330588;33;20066;-37
2021/08/05 01:54:40;;;;;;;3.95;1.10;;;25.80;55.00;;;;;;4330471;33;20098;-38
2021/08/05 01:57:12;;;;;;;0.62;0.60;;;26.00;54.80;;;;;;4343942;33;20087;-38
2021/08/05 01:59:39;;;;;;;1.52;0.70;;;26.10;54.40;;;;;;4350065;32;20073;-37
2021/08/05 02:02:07;;;;;;;7.90;1.02;;;26.10;54.00;;;;;;4359062;32;20047;-37
2021/08/05 02:04:43;;;;;;;3.17;1.23;;;26.20;53.60;;;;;;4345402;32;20090;-38
2021/08/05 02:07:29;;;;;;;1.45;1.00;;;26.30;53.20;;;;;;4359254;32;20059;-39
2021/08/05 02:10:07;;;;;;;5.12;0.60;;;26.50;52.80;;;;;;4345018;32;20073;-38
2021/08/05 02:12:39;;;;;;;2.15;0.62;;;26.60;52.20;;;;;;4358531;32;20086;-38
2021/08/05 02:15:06;;;;;;;4.90;0.90;;;26.60;51.80;;;;;;4344791;32;20075;-39
2021/08/05 02:17:39;;;;;;;1.10;0.55;;;26.70;51.40;;;;;;4344564;32;20161;-38
2021/08/05 02:20:07;;;;;;;1.48;1.00;;;26.80;51.30;;;;;;4358371;32;20177;-37
2021/08/05 02:22:34;;;;;;;1.55;0.80;;;26.90;50.90;;;;;;4344454;32;20070;-37
2021/08/05 02:25:02;;;;;;;2.25;0.80;;;27.00;50.60;;;;;;4344767;32;20102;-38
2021/08/05 02:27:28;;;;;;;1.70;0.77;;;27.10;50.30;;;;;;4344477;32;20078;-38
2021/08/05 02:29:55;;;;;;;2.75;0.60;;;27.20;49.70;;;;;;4344141;32;20058;-38
2021/08/05 02:32:22;;;;;;;1.08;0.70;;;27.40;49.20;;;;;;4344493;32;20234;-37
2021/08/05 02:34:48;;;;;;;2.45;0.60;;;27.60;48.70;;;;;;4344656;32;20168;-38
2021/08/05 02:37:15;;;;;;;1.83;0.80;;;27.80;48.00;;;;;;4358223;32;20082;-38
2021/08/05 02:39:41;;;;;;;1.35;0.55;;;28.10;47.70;;;;;;4344082;32;20147;-38
2021/08/05 02:42:09;;;;;;;4.57;0.88;;;28.30;47.20;;;;;;4333163;33;20067;-37
2021/08/05 02:44:36;;;;;;;0.90;0.65;;;28.50;46.50;;;;;;4328816;33;20157;-37
2021/08/05 02:47:03;;;;;;;0.98;0.60;;;28.70;45.90;;;;;;4328873;33;20082;-37
2021/08/05 02:49:30;;;;;;;1.33;0.30;;;28.90;45.60;;;;;;4302946;33;20071;-38
2021/08/05 02:51:56;;;;;;;1.23;0.80;;;29.10;45.20;;;;;;4327008;33;20059;-37
2021/08/05 02:54:23;;;;;;;2.03;0.82;;;29.30;44.60;;;;;;4314635;33;20188;-38
2021/08/05 02:56:49;;;;;;;2.50;0.73;;;29.50;44.10;;;;;;4327458;33;20095;-38
2021/08/05 02:59:16;;;;;;;0.90;0.70;;;29.80;43.90;;;;;;4318493;33;20086;-38
2021/08/05 03:01:42;;;;;;;2.60;1.15;;;30.00;43.70;;;;;;4341930;33;20066;-38
2021/08/05 03:04:12;;;;;;;1.35;0.80;;;30.10;43.10;;;;;;4342972;32;20542;-37
2021/08/05 03:06:38;;;;;;;3.85;0.80;;;30.40;43.00;;;;;;4343341;32;20135;-37
2021/08/05 03:09:04;;;;;;;3.47;1.00;;;30.50;42.50;;;;;;4329635;33;20073;-38
2021/08/05 03:11:31;;;;;;;1.98;0.60;;;30.50;42.30;;;;;;4329226;33;20180;-38
2021/08/05 03:13:57;;;;;;;0.55;0.47;;;30.70;42.50;;;;;;4343321;32;20126;-38
2021/08/05 03:16:23;;;;;;;1.08;0.60;;;30.70;42.30;;;;;;4343337;32;20087;-38
2021/08/05 03:18:50;;;;;;;1.20;0.70;;;30.70;42.30;;;;;;4343213;32;20105;-37
2021/08/05 03:21:16;;;;;;;5.18;1.00;;;30.80;42.30;;;;;;4343224;32;20137;-38
2021/08/05 03:23:43;;;;;;;3.87;0.70;;;30.90;42.40;;;;;;4343108;32;20066;-38
2021/08/05 03:26:09;;;;;;;1.42;0.60;;;30.90;42.10;;;;;;4343043;32;20641;-38
2021/08/05 03:28:36;;;;;;;3.42;0.80;;;31.00;42.00;;;;;;4353754;32;20511;-38
2021/08/05 03:31:02;;;;;;;0.40;0.30;;;31.10;42.00;;;;;;4342968;32;20066;-38
2021/08/05 03:33:29;;;;;;;3.65;1.30;;;31.20;41.80;;;;;;4342798;32;20613;-38
2021/08/05 03:35:55;;;;;;;2.20;1.05;;;31.20;41.60;;;;;;4343119;32;20144;-38
2021/08/05 03:38:22;;;;;;;2.30;0.70;;;31.30;41.80;;;;;;4343272;32;20078;-38
2021/08/05 03:40:48;;;;;;;2.35;0.60;;;31.40;41.40;;;;;;4343047;32;20066;-39
2021/08/05 03:43:15;;;;;;;3.90;0.93;;;31.50;41.20;;;;;;4342884;33;20098;-38
2021/08/05 03:45:41;;;;;;;1.55;1.00;;;31.50;41.10;;;;;;4342940;32;20472;-38
2021/08/05 03:48:07;;;;;;;3.95;0.88;;;31.50;40.90;;;;;;4342990;33;20174;-38
2021/08/05 03:50:34;;;;;;;2.15;0.77;;;31.70;40.90;;;;;;4342825;33;20063;-38
2021/08/05 03:53:00;;;;;;;3.67;0.80;;;31.80;40.70;;;;;;4344184;32;20086;-38
2021/08/05 03:55:27;;;;;;;1.60;0.80;;;31.90;40.20;;;;;;4345564;32;20098;-39
2021/08/05 03:57:53;;;;;;;0.68;0.32;;;32.00;39.60;;;;;;4345586;33;20486;-38
2021/08/05 04:00:20;;;;;;;0.80;0.70;;;32.10;39.10;;;;;;4355671;32;20077;-37
2021/08/05 04:02:46;;;;;;;5.25;0.50;;;32.10;38.90;;;;;;4346449;32;20066;-38
2021/08/05 04:05:13;;;;;;;3.08;0.60;;;32.10;38.90;;;;;;4360357;32;20058;-37
2021/08/05 04:07:39;;;;;;;3.47;1.00;;;32.20;38.60;;;;;;4360085;32;20081;-38
2021/08/05 04:10:07;;;;;;;4.57;1.00;;;32.20;38.60;;;;;;4359848;32;20074;-37
2021/08/05 04:12:33;;;;;;;2.83;0.52;;;32.30;38.40;;;;;;4360108;32;20086;-37
2021/08/05 04:15:00;;;;;;;2.28;0.50;;;32.40;38.00;;;;;;4360201;32;20079;-38
2021/08/05 04:17:26;;;;;;;5.68;0.77;;;32.50;37.90;;;;;;4360495;32;20066;-38
2021/08/05 04:19:52;;;;;;;1.20;0.90;;;32.50;37.60;;;;;;4360263;32;20077;-38
2021/08/05 04:22:19;;;;;;;2.55;0.90;;;32.60;37.50;;;;;;4360301;32;20576;-37
2021/08/05 04:24:45;;;;;;;4.72;0.80;;;32.60;37.40;;;;;;4359999;32;20142;-37
2021/08/05 04:27:12;;;;;;;3.33;0.70;;;32.80;37.30;;;;;;4359647;32;20539;-38
2021/08/05 04:29:38;;;;;;;1.40;0.85;;;32.90;37.40;;;;;;4359817;32;20058;-38
2021/08/05 04:32:05;;;;;;;5.68;1.80;;;33.20;36.80;;;;;;4359673;32;20073;-38
2021/08/05 04:34:31;;;;;;;2.00;0.73;;;33.40;36.50;;;;;;4359886;32;20537;-36
2021/08/05 04:36:58;;;;;;;1.02;0.52;;;33.60;35.50;;;;;;4360464;32;20070;-38
2021/08/05 04:39:24;;;;;;;1.20;0.80;;;33.80;35.30;;;;;;4346171;32;20097;-38
2021/08/05 04:41:51;;;;;;;2.08;0.80;;;33.90;34.60;;;;;;4352711;32;20085;-37
2021/08/05 04:44:17;;;;;;;5.57;0.95;;;34.00;34.80;;;;;;4345022;33;20085;-38
2021/08/05 04:46:43;;;;;;;1.65;0.93;;;34.10;34.70;;;;;;4345135;33;20408;-42
2021/08/05 04:49:10;;;;;;;4.53;0.75;;;34.30;34.60;;;;;;4345217;32;20098;-37
2021/08/05 04:51:36;;;;;;;2.42;0.80;;;34.50;33.50;;;;;;4344605;33;20537;-38
2021/08/05 04:54:03;;;;;;;1.73;0.50;;;34.70;33.30;;;;;;4344850;33;20177;-37
2021/08/05 04:56:31;;;;;;;2.25;0.80;;;34.80;32.80;;;;;;4344972;33;20097;-38
2021/08/05 04:58:58;;;;;;;2.15;0.62;;;34.80;31.80;;;;;;4346780;32;20499;-38
2021/08/05 05:01:24;;;;;;;6.93;1.20;;;34.80;31.80;;;;;;4359844;32;20106;-37
2021/08/05 05:03:51;;;;;;;1.85;0.77;;;34.80;32.10;;;;;;4359545;32;20098;-42
2021/08/05 05:06:17;;;;;;;1.85;0.60;;;34.80;33.10;;;;;;4359564;32;20129;-37
2021/08/05 05:08:43;;;;;;;1.15;1.02;;;35.00;32.70;;;;;;4359424;32;20465;-38
2021/08/05 05:11:10;;;;;;;0.45;0.45;;;35.10;31.90;;;;;;4359371;32;20506;-37
2021/08/05 05:13:36;;;;;;;3.15;0.60;;;35.20;31.60;;;;;;4359234;32;20063;-37
2021/08/05 05:16:03;;;;;;;2.78;0.60;;;35.20;31.20;;;;;;4359289;32;20055;-39
2021/08/05 05:18:29;;;;;;;1.37;0.45;;;35.20;30.90;;;;;;4359316;32;20161;-38
2021/08/05 05:20:56;;;;;;;2.35;0.60;;;35.20;30.90;;;;;;4312404;33;20757;-38
2021/08/05 05:23:22;;;;;;;2.55;1.20;;;35.10;30.40;;;;;;4312707;33;20103;-37
2021/08/05 05:25:49;;;;;;;5.00;0.93;;;35.20;30.90;;;;;;4312458;33;20083;-37
2021/08/05 05:28:15;;;;;;;1.00;0.70;;;35.30;30.80;;;;;;4312587;33;20178;-37
2021/08/05 05:30:42;;;;;;;3.33;0.60;;;35.60;30.50;;;;;;4312560;33;20193;-37
2021/08/05 05:33:08;;;;;;;0.80;0.47;;;35.70;30.10;;;;;;4312380;33;20094;-37
2021/08/05 05:35:35;;;;;;;2.87;1.20;;;35.90;29.90;;;;;;4312456;33;20500;-37
2021/08/05 05:38:02;;;;;;;2.35;0.60;;;36.10;29.10;;;;;;4300582;33;20103;-37
2021/08/05 05:40:28;;;;;;;2.45;0.60;;;36.20;29.20;;;;;;4312556;33;20092;-38
2021/08/05 05:42:55;;;;;;;0.40;0.40;;;36.20;29.20;;;;;;4299013;33;20071;-37
2021/08/05 05:45:22;;;;;;;1.23;0.43;;;36.40;29.30;;;;;;4297997;33;20090;-38
2021/08/05 05:47:48;;;;;;;1.10;0.43;;;36.50;28.90;;;;;;4297351;33;20287;-38
2021/08/05 05:50:17;;;;;;;0.50;0.35;;;36.60;28.90;;;;;;4297843;33;20152;-38
2021/08/05 05:52:44;;;;;;;2.60;0.50;;;36.60;28.70;;;;;;4335484;33;20059;-38
2021/08/05 05:55:11;;;;;;;0.45;0.25;;;36.60;28.70;;;;;;4343618;33;20102;-38
2021/08/05 05:57:37;;;;;;;2.53;0.55;;;36.50;28.90;;;;;;4344167;33;20071;-38
2021/08/05 06:00:05;;;;;;;2.70;0.60;;;36.60;29.10;;;;;;4352520;32;20074;-38
2021/08/05 06:02:31;;;;;;;1.00;0.50;;;36.60;28.90;;;;;;4345111;32;20171;-37
2021/08/05 06:04:58;;;;;;;0.50;0.30;;;36.70;28.90;;;;;;4358536;32;20096;-38
2021/08/05 06:07:24;;;;;;;6.32;0.68;;;36.80;28.60;;;;;;4358341;32;20244;-38
2021/08/05 06:09:51;;;;;;;1.48;0.60;;;36.90;28.10;;;;;;4358628;32;20227;-37
2021/08/05 06:12:17;;;;;;;1.65;0.30;;;37.00;27.80;;;;;;4344463;32;20062;-37
2021/08/05 06:14:44;;;;;;;0.35;0.30;;;36.90;27.30;;;;;;4344174;32;20070;-37
2021/08/05 06:17:10;;;;;;;0.80;0.55;;;36.80;27.10;;;;;;4358314;32;20631;-38
2021/08/05 06:19:37;;;;;;;0.37;0.20;;;36.70;27.30;;;;;;4358578;32;20558;-37
2021/08/05 06:22:03;;;;;;;1.48;0.40;;;36.80;27.40;;;;;;4358784;32;20059;-38
2021/08/05 06:24:30;;;;;;;1.33;0.50;;;36.80;27.30;;;;;;4358197;32;20193;-38
2021/08/05 06:26:56;;;;;;;2.75;0.45;;;36.80;27.10;;;;;;4358601;32;20081;-37
2021/08/05 06:29:28;;;;;;;0.62;0.50;;;37.00;27.60;;;;;;4358235;32;20086;-38
2021/08/05 06:31:55;;;;;;;2.83;0.90;;;37.10;27.40;;;;;;4358292;32;20090;-38
2021/08/05 06:34:21;;;;;;;1.67;0.47;;;37.20;27.20;;;;;;4358056;32;20551;-38
2021/08/05 06:36:48;;;;;;;2.65;0.50;;;37.40;27.20;;;;;;4358526;32;20058;-37
2021/08/05 06:39:14;;;;;;;4.00;0.50;;;37.30;27.80;;;;;;4358259;32;20536;-38
2021/08/05 06:41:41;;;;;;;0.30;0.30;;;37.30;27.20;;;;;;4352534;32;20093;-36
2021/08/05 06:44:07;;;;;;;0.30;0.10;;;37.30;26.60;;;;;;4342988;33;20552;-39
2021/08/05 06:46:36;;;;;;;1.05;0.60;;;37.20;26.40;;;;;;4341763;33;20537;-39
2021/08/05 06:49:02;;;;;;;3.47;0.50;;;37.20;26.60;;;;;;4343657;32;20523;-39
2021/08/05 06:51:29;;;;;;;0.65;0.47;;;37.30;26.80;;;;;;4343331;32;20136;-38
2021/08/05 06:53:55;;;;;;;1.00;0.50;;;37.40;26.70;;;;;;4343534;32;20067;-39
2021/08/05 06:56:22;;;;;;;2.37;0.60;;;37.40;26.30;;;;;;4343462;32;20514;-37
2021/08/05 06:58:48;;;;;;;0.37;0.30;;;37.50;26.40;;;;;;4342926;32;20063;-37
2021/08/05 07:01:15;;;;;;;0.80;0.50;;;37.50;26.50;;;;;;4343247;32;20088;-37
2021/08/05 07:03:41;;;;;;;2.03;0.50;;;37.60;26.60;;;;;;4342764;33;20515;-37
2021/08/05 07:06:07;;;;;;;0.57;0.50;;;37.70;26.60;;;;;;4342826;32;20066;-39
2021/08/05 07:08:35;;;;;;;0.82;0.40;;;37.90;26.30;;;;;;4342914;32;20455;-37
2021/08/05 07:11:02;;;;;;;2.05;0.40;;;37.80;25.90;;;;;;4341252;33;20460;-38
2021/08/05 07:13:28;;;;;;;1.12;0.50;;;37.80;26.20;;;;;;4343036;32;20170;-38
2021/08/05 07:15:55;;;;;;;1.17;0.60;;;37.90;26.20;;;;;;4353383;32;20085;-38
2021/08/05 07:18:21;;;;;;;1.73;0.50;;;37.90;26.10;;;;;;4342986;32;20589;-43
2021/08/05 07:20:48;;;;;;;0.40;0.30;;;38.00;25.80;;;;;;4342882;32;20090;-37
2021/08/05 07:23:14;;;;;;;1.77;0.50;;;37.90;25.10;;;;;;4343128;32;20154;-38
2021/08/05 07:25:41;;;;;;;0.43;0.40;;;37.90;24.90;;;;;;4342787;32;20074;-37
2021/08/05 07:28:08;;;;;;;1.92;0.35;;;38.00;24.90;;;;;;4344701;33;20074;-39
2021/08/05 07:30:34;;;;;;;1.33;0.50;;;37.90;24.20;;;;;;4345962;33;20105;-38
2021/08/05 07:33:01;;;;;;;2.12;0.37;;;37.70;24.40;;;;;;4345874;32;20107;-39
2021/08/05 07:35:27;;;;;;;0.35;0.30;;;37.70;24.40;;;;;;4345922;32;20090;-37
2021/08/05 07:37:54;;;;;;;0.10;0.10;;;37.60;24.50;;;;;;4345834;32;20142;-38
2021/08/05 07:40:20;;;;;;;0.35;0.20;;;37.50;24.50;;;;;;4345481;33;20113;-38
2021/08/05 07:42:47;;;;;;;0.60;0.30;;;37.50;24.60;;;;;;4358029;32;20164;-38
2021/08/05 07:45:13;;;;;;;0.30;0.30;;;37.40;24.60;;;;;;4360196;32;20478;-38
2021/08/05 07:47:39;;;;;;;2.90;0.40;;;37.40;24.40;;;;;;4360973;32;20071;-38
2021/08/05 07:50:09;;;;;;;3.80;0.40;;;37.40;24.30;;;;;;4346900;32;20093;-38
2021/08/05 07:52:37;;;;;;;2.45;0.40;;;37.40;24.60;;;;;;4360533;32;20521;-39
2021/08/05 07:55:05;;;;;;;2.53;0.50;;;37.60;24.60;;;;;;4360565;32;20069;-39
2021/08/05 07:57:32;;;;;;;1.62;0.50;;;37.70;24.40;;;;;;4360480;32;20070;-38
2021/08/05 08:00:00;;;;;;;0.35;0.30;;;37.70;24.20;;;;;;4360277;32;20161;-38
2021/08/05 08:02:27;;;;;;;0.50;0.40;;;37.70;24.20;;;;;;4360183;32;20105;-38
2021/08/05 08:04:54;;;;;;;0.40;0.30;;;37.80;24.40;;;;;;4346174;32;20175;-40
2021/08/05 08:07:20;;;;;;;1.10;0.35;;;38.00;24.40;;;;;;4360279;32;20074;-38
2021/08/05 08:09:47;;;;;;;0.55;0.43;;;38.20;24.20;;;;;;4360347;32;20084;-38
2021/08/05 08:12:13;;;;;;;0.28;0.20;;;38.30;24.70;;;;;;4345971;32;20140;-38
2021/08/05 08:14:40;;;;;;;0.70;0.40;;;38.20;23.80;;;;;;4360143;32;20082;-38
2021/08/05 08:17:06;;;;;;;0.77;0.40;;;38.30;24.00;;;;;;4342627;33;20078;-39
2021/08/05 08:19:33;;;;;;;3.12;0.50;;;38.40;24.00;;;;;;4342982;33;20094;-38
2021/08/05 08:22:00;;;;;;;1.85;0.32;;;38.40;23.90;;;;;;4342692;33;20487;-38
2021/08/05 08:24:28;;;;;;;2.65;0.40;;;38.50;23.70;;;;;;4342502;33;20077;-39
2021/08/05 08:26:54;;;;;;;0.43;0.22;;;38.70;23.80;;;;;;4342723;33;20161;-38
2021/08/05 08:29:20;;;;;;;4.40;0.70;;;38.70;23.70;;;;;;4342318;33;20079;-38
2021/08/05 08:31:48;;;;;;;1.73;0.30;;;38.90;23.60;;;;;;4342533;33;20081;-39
2021/08/05 08:34:15;;;;;;;0.20;0.20;;;39.00;23.60;;;;;;4342972;33;20075;-37
2021/08/05 08:36:42;;;;;;;0.37;0.30;;;39.00;23.00;;;;;;4342757;33;20086;-38
2021/08/05 08:39:09;;;;;;;2.92;0.77;;;38.90;23.00;;;;;;4342686;33;20147;-38
2021/08/05 08:41:38;;;;;;;0.45;0.37;;;38.90;23.20;;;;;;4337235;33;20563;-40
2021/08/05 08:44:04;;;;;;;3.87;0.40;;;38.90;23.10;;;;;;4328079;33;20067;-39
2021/08/05 08:46:34;;;;;;;0.55;0.45;;;38.70;23.40;;;;;;4328014;33;20059;-38
2021/08/05 08:49:01;;;;;;;1.83;0.50;;;38.60;23.50;;;;;;4329537;33;20074;-38
2021/08/05 08:51:32;;;;;;;1.85;0.20;;;38.40;23.10;;;;;;4344966;33;20075;-38
2021/08/05 08:54:05;;;;;;;0.45;0.30;;;38.30;23.10;;;;;;4344998;33;20067;-38
2021/08/05 08:56:33;;;;;;;0.40;0.28;;;38.30;23.10;;;;;;4344925;33;20189;-39
2021/08/05 08:59:00;;;;;;;0.62;0.28;;;38.10;23.00;;;;;;4346664;32;20525;-38
2021/08/05 09:01:26;;;;;;;0.90;0.40;;;38.10;23.20;;;;;;4359905;32;20070;-39
2021/08/05 09:03:53;;;;;;;1.27;0.40;;;38.10;23.40;;;;;;4359383;32;20157;-40
2021/08/05 09:06:20;;;;;;;1.95;0.80;;;38.10;23.10;;;;;;4359432;32;20088;-39
2021/08/05 09:08:48;;;;;;;0.60;0.35;;;38.20;23.00;;;;;;4359639;32;20466;-39
2021/08/05 09:11:16;;;;;;;1.00;0.20;;;38.30;23.10;;;;;;4359610;32;20295;-40
2021/08/05 09:13:42;;;;;;;1.25;0.43;;;38.10;22.70;;;;;;4359949;32;20074;-39
2021/08/05 09:16:28;;;;;;;0.82;0.30;;;38.20;22.70;;;;;;4345230;32;20085;-38
2021/08/05 09:19:07;;;;;;;0.30;0.20;;;38.40;22.50;;;;;;4359314;32;20077;-39
2021/08/05 09:21:33;;;;;;;1.70;0.40;;;38.40;22.10;;;;;;4359108;32;20127;-40
2021/08/05 09:24:07;;;;;;;0.93;0.30;;;38.30;21.50;;;;;;4359099;32;20258;-40
2021/08/05 09:26:44;;;;;;;1.00;0.32;;;38.40;21.60;;;;;;4359451;32;20070;-39
2021/08/05 09:29:17;;;;;;;1.70;0.60;;;38.40;21.20;;;;;;4359052;32;20069;-39
2021/08/05 09:31:50;;;;;;;2.08;0.40;;;38.50;20.90;;;;;;4359437;32;20078;-39
2021/08/05 09:34:23;;;;;;;1.40;0.10;;;38.70;21.40;;;;;;4359363;32;20113;-38
2021/08/05 09:36:59;;;;;;;0.10;0.10;;;38.70;21.40;;;;;;4359148;32;20073;-38
2021/08/05 09:39:31;;;;;;;2.30;0.40;;;38.80;21.30;;;;;;4358875;32;20468;-39
2021/08/05 09:42:16;;;;;;;4.25;0.50;;;38.90;21.10;;;;;;4351261;32;20535;-39
2021/08/05 09:44:46;;;;;;;1.02;0.28;;;39.00;21.00;;;;;;4343951;32;20579;-39
2021/08/05 09:47:21;;;;;;;0.82;0.20;;;38.90;21.50;;;;;;4344293;32;20094;-37
2021/08/05 09:49:47;;;;;;;0.60;0.20;;;38.90;21.50;;;;;;4354395;32;20070;-38
2021/08/05 09:52:29;;;;;;;0.82;0.40;;;38.90;20.50;;;;;;4343907;32;20071;-42
2021/08/05 09:54:55;;;;;;;0.60;0.30;;;38.90;20.60;;;;;;4342366;33;20599;-38
2021/08/05 09:57:38;;;;;;;0.60;0.35;;;38.70;20.60;;;;;;4344116;32;20070;-38
2021/08/05 10:00:18;;;;;;;0.13;0.13;;;38.70;21.00;;;;;;4343770;32;20617;-39
2021/08/05 10:02:52;;;;;;;2.67;0.20;;;38.60;19.70;;;;;;4342655;33;20091;-38
2021/08/05 10:05:24;;;;;;;1.87;0.20;;;38.40;19.90;;;;;;4343624;32;20055;-38
2021/08/05 10:10:25;;;;;;;1.55;0.40;;;38.30;20.30;;;;;;3828982;37;20055;-38
2021/08/05 10:12:53;;;;;;;0.80;0.25;;;38.10;20.90;;;;;;4388048;32;20069;-39
2021/08/05 10:15:20;;;;;;;5.75;2.55;;;37.90;20.40;;;;;;4401307;32;20068;-39
2021/08/05 10:17:54;;;;;;;0.60;0.20;;;37.80;21.00;;;;;;4401522;32;20065;-40
2021/08/05 10:20:21;;;;;;;1.33;0.20;;;37.70;20.50;;;;;;4387664;32;20108;-39
2021/08/05 10:22:49;;;;;;;0.62;0.30;;;37.50;20.50;;;;;;4387069;32;20061;-38
2021/08/05 10:25:17;;;;;;;0.60;0.20;;;37.40;20.50;;;;;;4401031;32;20072;-39
2021/08/05 10:27:44;;;;;;;0.30;0.20;;;37.50;20.60;;;;;;4401086;32;20053;-39
2021/08/05 10:30:13;;;;;;;0.30;0.20;;;37.60;20.50;;;;;;4400589;32;20530;-39
2021/08/05 10:32:40;;;;;;;0.37;0.30;;;37.60;20.20;;;;;;4400855;32;20093;-37
2021/08/05 10:35:11;;;;;;;0.80;0.40;;;37.60;20.10;;;;;;4386734;32;20079;-38
2021/08/05 10:37:38;;;;;;;0.73;0.40;;;37.40;20.10;;;;;;4400892;32;20062;-38
2021/08/05 10:40:07;;;;;;;5.03;0.15;;;37.40;20.30;;;;;;4400982;32;20066;-38
2021/08/05 10:42:34;;;;;;;0.25;0.10;;;37.50;20.50;;;;;;4389158;32;20078;-38
2021/08/05 10:45:00;;;;;;;2.60;0.32;;;37.50;20.40;;;;;;4385455;32;20628;-38
2021/08/05 10:47:28;;;;;;;1.23;0.10;;;37.40;20.70;;;;;;4385271;32;20113;-38
2021/08/05 10:49:57;;;;;;;0.30;0.20;;;37.30;21.00;;;;;;4367438;32;20163;-38
2021/08/05 10:52:37;;;;;;;2.33;0.25;;;37.30;20.90;;;;;;4367725;32;20167;-39
2021/08/05 10:55:16;;;;;;;1.15;0.28;;;37.40;20.80;;;;;;4367600;32;20061;-38
2021/08/05 10:57:46;;;;;;;1.98;0.40;;;37.40;20.30;;;;;;4367758;32;20094;-39
2021/08/05 11:00:17;;;;;;;0.85;0.30;;;37.50;20.20;;;;;;4368056;32;21088;-40
2021/08/05 11:02:56;;;;;;;1.92;0.20;;;37.60;20.30;;;;;;4355509;32;20140;-39
2021/08/05 11:05:23;;;;;;;0.40;0.30;;;37.80;20.50;;;;;;4367468;32;20164;-37
2021/08/05 11:08:08;;;;;;;0.13;0.10;;;37.70;20.50;;;;;;4368040;32;20055;-37
2021/08/05 11:10:37;;;;;;;0.30;0.20;;;37.50;20.50;;;;;;4367695;32;20513;-38
2021/08/05 11:13:09;;;;;;;1.45;0.30;;;37.50;20.50;;;;;;4367720;32;20142;-38
2021/08/05 11:15:35;;;;;;;0.80;0.30;;;37.50;20.50;;;;;;4367737;32;20069;-37
2021/08/05 11:18:10;;;;;;;0.40;0.20;;;37.40;19.70;;;;;;4367921;32;20167;-39
2021/08/05 11:20:39;;;;;;;0.30;0.25;;;37.20;19.90;;;;;;4362066;32;20538;-39
2021/08/05 11:23:05;;;;;;;0.52;0.20;;;37.20;19.80;;;;;;4345374;32;20077;-38
2021/08/05 11:25:53;;;;;;;1.42;0.20;;;37.10;19.80;;;;;;4345537;32;20085;-38
2021/08/05 11:28:49;;;;;;;0.80;0.28;;;37.20;19.90;;;;;;4359636;32;20519;-40
2021/08/05 11:31:30;;;;;;;0.30;0.30;;;37.20;20.40;;;;;;4358665;32;20065;-39
2021/08/05 11:34:01;;;;;;;0.37;0.20;;;37.20;20.70;;;;;;4358529;32;20070;-38
2021/08/05 11:36:42;;;;;;;2.15;0.30;;;37.10;20.70;;;;;;4359897;32;20089;-39
2021/08/05 11:39:19;;;;;;;0.20;0.20;;;36.90;20.80;;;;;;4359815;32;20090;-38
2021/08/05 11:42:02;;;;;;;0.40;0.30;;;36.70;21.00;;;;;;4359943;32;20054;-39
2021/08/05 11:44:34;;;;;;;3.55;0.28;;;36.80;21.10;;;;;;4359814;32;20058;-38
2021/08/05 11:47:08;;;;;;;3.30;0.85;;;36.70;21.20;;;;;;4359922;32;20071;-39
2021/08/05 11:49:59;;;;;;;0.20;0.20;;;36.60;21.10;;;;;;4359927;32;20062;-38
2021/08/05 11:52:29;;;;;;;11.25;0.70;;;36.60;21.40;;;;;;4353725;32;20446;-38
2021/08/05 11:55:08;;;;;;;0.68;0.40;;;36.50;21.60;;;;;;4359778;32;20098;-38
2021/08/05 11:57:46;;;;;;;1.30;0.35;;;36.60;21.40;;;;;;4359699;32;20058;-38
2021/08/05 12:00:27;;;;;;;0.60;0.37;;;36.50;21.50;;;;;;4359690;32;20542;-38
2021/08/05 12:03:04;;;;;;;1.80;0.30;;;36.40;21.30;;;;;;4359561;32;20172;-39
2021/08/05 12:05:43;;;;;;;0.50;0.40;;;36.30;21.50;;;;;;4346057;32;20065;-39
2021/08/05 12:08:09;;;;;;;1.35;0.20;;;36.50;21.50;;;;;;4359389;32;20075;-39
2021/08/05 12:10:40;;;;;;;0.55;0.30;;;36.60;21.40;;;;;;4359252;32;20097;-37
2021/08/05 12:13:18;;;;;;;0.30;0.20;;;36.60;21.10;;;;;;4359586;32;20057;-38
2021/08/05 12:15:51;;;;;;;0.52;0.22;;;36.60;21.20;;;;;;4358989;32;20070;-37
2021/08/05 12:18:26;;;;;;;0.40;0.20;;;36.70;21.30;;;;;;4359485;32;20136;-38
2021/08/05 12:20:55;;;;;;;4.00;0.40;;;36.40;21.30;;;;;;4359742;32;20179;-43
2021/08/05 12:23:37;;;;;;;0.75;0.40;;;36.50;21.40;;;;;;4359637;32;20209;-38
2021/08/05 12:26:25;;;;;;;0.20;0.10;;;36.60;21.40;;;;;;4359182;32;20066;-38
2021/08/05 12:28:53;;;;;;;0.30;0.25;;;36.40;21.30;;;;;;4359847;32;20097;-38
2021/08/05 12:31:23;;;;;;;2.80;0.50;;;36.30;21.40;;;;;;4358998;32;20134;-39
2021/08/05 12:33:50;;;;;;;0.60;0.28;;;36.40;21.10;;;;;;4359099;32;20062;-37
2021/08/05 12:36:19;;;;;;;0.20;0.20;;;36.30;21.10;;;;;;4358849;32;20089;-41
2021/08/05 12:38:50;;;;;;;0.25;0.20;;;36.20;21.20;;;;;;4359337;32;20171;-39
2021/08/05 12:41:39;;;;;;;1.83;0.30;;;36.30;21.30;;;;;;4348720;32;20497;-39
2021/08/05 12:44:17;;;;;;;0.40;0.20;;;36.30;21.20;;;;;;4374229;32;20070;-38
2021/08/05 12:46:54;;;;;;;0.65;0.37;;;36.40;21.20;;;;;;4373866;32;20062;-37
2021/08/05 12:49:26;;;;;;;0.17;0.10;;;36.30;21.20;;;;;;4359542;32;20173;-38
2021/08/05 12:51:57;;;;;;;0.20;0.20;;;36.20;21.10;;;;;;4337073;32;20199;-38
2021/08/05 12:54:24;;;;;;;0.37;0.20;;;36.00;21.20;;;;;;4360190;32;20066;-37
2021/08/05 12:56:52;;;;;;;1.80;0.30;;;35.90;21.40;;;;;;4347721;32;20590;-37